Time;durP1;ratioP1;P1;durP2;ratioP2;P2;SDS_P1;SDS_P2;PMS_P1;PMS_P2;Temp;Humidity;BMP_temperature;BMP_pressure;BME280_temperature;BME280_humidity;BME280_pressure;Samples;Min_cycle;Max_cycle;Signal;HPM_P1;HPM_P2
2022/09/02 00:01:40;;;;;;;;;;;15.00;99.90;;;;;;5055531;28;20476;-70
2022/09/02 00:04:08;;;;;;;4.32;2.20;;;15.00;99.90;;;;;;5072953;28;19949;-67
2022/09/02 00:06:35;;;;;;;4.20;2.20;;;15.10;99.90;;;;;;5072752;28;20070;-68
2022/09/02 00:09:04;;;;;;;3.50;2.10;;;14.90;99.90;;;;;;5072327;28;20052;-69
2022/09/02 00:11:32;;;;;;;7.25;2.13;;;14.80;99.90;;;;;;5072198;28;20480;-70
2022/09/02 00:14:01;;;;;;;4.30;2.28;;;15.10;99.90;;;;;;5072487;28;20048;-70
2022/09/02 00:16:27;;;;;;;2.90;2.10;;;15.00;99.90;;;;;;5072423;28;20135;-70
2022/09/02 00:18:55;;;;;;;4.68;2.15;;;14.70;99.90;;;;;;5072391;28;20198;-69
2022/09/02 00:21:21;;;;;;;3.67;2.35;;;14.80;99.90;;;;;;5072044;28;20045;-68
2022/09/02 00:23:47;;;;;;;4.22;2.00;;;15.00;99.90;;;;;;5072033;28;20043;-69
2022/09/02 00:26:13;;;;;;;2.83;2.15;;;14.70;99.90;;;;;;5070393;28;20056;-69
2022/09/02 00:28:40;;;;;;;2.85;2.30;;;14.90;99.90;;;;;;5072273;28;20061;-70
2022/09/02 00:31:05;;;;;;;3.45;2.30;;;14.60;99.90;;;;;;5071873;28;20063;-70
2022/09/02 00:33:31;;;;;;;4.80;2.10;;;14.90;99.90;;;;;;5054292;28;20485;-71
2022/09/02 00:35:58;;;;;;;;;;;14.50;99.90;;;;;;5072344;28;20044;-70
2022/09/02 00:38:24;;;;;;;4.60;2.20;;;14.80;99.90;;;;;;5072227;28;19924;-71
2022/09/02 00:40:50;;;;;;;;;;;14.40;99.90;;;;;;5072572;28;20396;-69
2022/09/02 00:43:45;;;;;;;2.63;2.28;;;14.40;99.90;;;;;;5071984;28;20475;-70
2022/09/02 00:46:15;;;;;;;3.30;1.92;;;14.10;99.90;;;;;;5072026;28;20097;-70
2022/09/02 00:48:47;;;;;;;4.50;2.58;;;14.50;99.90;;;;;;5072019;28;20131;-71
2022/09/02 00:51:14;;;;;;;3.28;2.20;;;14.30;99.90;;;;;;5071734;28;20056;-69
2022/09/02 00:53:43;;;;;;;3.95;2.20;;;14.50;99.90;;;;;;5071950;28;20055;-71
2022/09/02 00:56:12;;;;;;;3.10;2.15;;;14.20;99.90;;;;;;5071863;28;20127;-67
2022/09/02 00:58:41;;;;;;;2.60;2.33;;;14.80;99.90;;;;;;5071850;28;20055;-69
2022/09/02 01:01:10;;;;;;;4.88;2.33;;;14.10;99.90;;;;;;5071853;28;20049;-69
2022/09/02 01:03:36;;;;;;;2.70;2.35;;;14.40;99.90;;;;;;5071868;28;20084;-70
2022/09/02 01:06:02;;;;;;;3.92;2.28;;;14.10;99.90;;;;;;5071591;28;20048;-71
2022/09/02 01:08:33;;;;;;;5.40;2.10;;;14.00;99.90;;;;;;5070516;28;20045;-68
2022/09/02 01:11:00;;;;;;;3.33;2.25;;;14.60;99.90;;;;;;5071590;28;20056;-72
2022/09/02 01:13:28;;;;;;;5.00;2.33;;;14.20;99.90;;;;;;5071800;28;20091;-70
2022/09/02 01:16:05;;;;;;;4.80;2.13;;;14.20;99.90;;;;;;5071776;28;20051;-73
2022/09/02 01:18:31;;;;;;;5.07;2.25;;;14.20;99.90;;;;;;5071735;28;20045;-69
2022/09/02 01:20:59;;;;;;;3.33;2.33;;;14.40;99.90;;;;;;5071391;28;20128;-70
2022/09/02 01:23:27;;;;;;;2.30;2.10;;;14.20;99.90;;;;;;5071409;28;20547;-70
2022/09/02 01:25:53;;;;;;;4.47;2.30;;;14.40;99.90;;;;;;5070677;28;20052;-72
2022/09/02 01:28:19;;;;;;;3.25;2.08;;;13.90;99.90;;;;;;5071609;28;20049;-71
2022/09/02 01:30:47;;;;;;;;;;;14.00;99.90;;;;;;5071506;28;20203;-72
2022/09/02 01:33:14;;;;;;;3.55;2.40;;;14.00;99.90;;;;;;5070260;28;20015;-71
2022/09/02 01:35:40;;;;;;;4.65;2.20;;;14.00;99.90;;;;;;5070312;28;20514;-73
2022/09/02 01:38:06;;;;;;;4.53;2.42;;;13.90;99.90;;;;;;5075485;28;20041;-70
2022/09/02 01:40:32;;;;;;;7.85;2.88;;;14.50;99.90;;;;;;5075407;28;20048;-68
2022/09/02 01:43:01;;;;;;;;;;;13.90;99.90;;;;;;5075750;28;20043;-71
2022/09/02 01:45:28;;;;;;;4.82;2.10;;;13.80;99.90;;;;;;5075327;28;19920;-70
2022/09/02 01:47:54;;;;;;;4.82;2.30;;;13.80;99.90;;;;;;5075344;28;20128;-69
2022/09/02 01:50:20;;;;;;;3.75;2.35;;;14.00;99.90;;;;;;5074974;28;20052;-70
2022/09/02 01:52:46;;;;;;;2.35;2.10;;;14.20;99.90;;;;;;5075181;28;20078;-69
2022/09/02 01:55:11;;;;;;;;;;;13.70;99.90;;;;;;5075985;28;20048;-70
2022/09/02 01:57:37;;;;;;;2.67;2.08;;;13.80;99.90;;;;;;5075296;28;20315;-69
2022/09/02 02:00:04;;;;;;;;;;;14.00;99.90;;;;;;5075569;28;20051;-70
2022/09/02 02:02:29;;;;;;;3.25;2.25;;;14.10;99.90;;;;;;5074955;28;19924;-69
2022/09/02 02:04:55;;;;;;;3.85;2.30;;;13.70;99.90;;;;;;5074698;28;20126;-71
2022/09/02 02:07:21;;;;;;;8.85;2.10;;;13.70;99.90;;;;;;5074878;28;20044;-71
2022/09/02 02:09:48;;;;;;;5.25;2.72;;;15.00;99.90;;;;;;5074876;28;20049;-69
2022/09/02 02:12:15;;;;;;;3.63;2.35;;;13.70;99.90;;;;;;5074789;28;20049;-69
2022/09/02 02:14:40;;;;;;;2.45;2.00;;;14.00;99.90;;;;;;5074828;28;20139;-71
2022/09/02 02:17:06;;;;;;;4.47;2.00;;;14.00;99.90;;;;;;5075028;28;20131;-71
2022/09/02 02:19:33;;;;;;;3.53;2.33;;;13.60;99.90;;;;;;5074353;28;20045;-71
2022/09/02 02:21:59;;;;;;;4.45;2.30;;;13.80;99.90;;;;;;5073547;28;20102;-70
2022/09/02 02:24:24;;;;;;;5.13;2.13;;;13.70;99.90;;;;;;5074609;28;20084;-71
2022/09/02 02:26:50;;;;;;;3.13;2.13;;;13.50;99.90;;;;;;5074568;28;20561;-71
2022/09/02 02:29:16;;;;;;;4.38;2.35;;;13.80;99.90;;;;;;5074369;28;20052;-71
2022/09/02 02:31:44;;;;;;;2.80;2.00;;;14.00;99.90;;;;;;5073166;28;20044;-70
2022/09/02 02:34:10;;;;;;;4.55;2.13;;;13.90;99.90;;;;;;5074136;28;20155;-71
2022/09/02 02:36:37;;;;;;;4.03;2.30;;;13.40;99.90;;;;;;5074367;28;20052;-70
2022/09/02 02:39:04;;;;;;;4.93;2.35;;;13.70;99.90;;;;;;5074311;28;20059;-69
2022/09/02 02:41:30;;;;;;;3.00;1.80;;;14.20;99.90;;;;;;5073062;28;20469;-72
2022/09/02 02:43:56;;;;;;;3.88;2.45;;;13.80;99.90;;;;;;5074184;28;20079;-71
2022/09/02 02:46:22;;;;;;;2.45;2.00;;;13.70;99.90;;;;;;5073970;28;20157;-70
2022/09/02 02:48:47;;;;;;;2.97;2.20;;;13.70;99.90;;;;;;5072822;28;20059;-72
2022/09/02 02:51:13;;;;;;;3.85;2.47;;;13.70;99.90;;;;;;5074050;28;20037;-71
2022/09/02 02:53:39;;;;;;;2.33;2.13;;;13.50;99.90;;;;;;5074088;28;20052;-70
2022/09/02 02:56:06;;;;;;;;;;;13.30;99.90;;;;;;5074484;28;20049;-73
2022/09/02 02:58:33;;;;;;;4.80;2.22;;;13.50;99.90;;;;;;5073950;28;19921;-71
2022/09/02 03:00:59;;;;;;;;;;;14.50;99.90;;;;;;5074127;28;20412;-70
2022/09/02 03:03:26;;;;;;;3.33;2.00;;;13.50;99.90;;;;;;5072944;28;19920;-71
2022/09/02 03:05:52;;;;;;;3.75;1.98;;;13.60;99.90;;;;;;5073886;28;20060;-71
2022/09/02 03:08:19;;;;;;;2.10;1.90;;;13.20;99.90;;;;;;5073845;28;20048;-72
2022/09/02 03:10:46;;;;;;;3.33;2.22;;;13.30;99.90;;;;;;5073744;28;20063;-71
2022/09/02 03:13:14;;;;;;;2.95;2.15;;;13.40;99.90;;;;;;5073645;28;20048;-70
2022/09/02 03:15:40;;;;;;;2.80;2.20;;;13.20;99.90;;;;;;5073401;28;20052;-69
2022/09/02 03:18:06;;;;;;;2.47;1.95;;;13.60;99.90;;;;;;5073555;28;20056;-69
2022/09/02 03:20:32;;;;;;;5.18;2.33;;;13.50;99.90;;;;;;5072232;28;20097;-69
2022/09/02 03:22:58;;;;;;;3.38;2.00;;;13.50;99.90;;;;;;5073544;28;20047;-71
2022/09/02 03:25:27;;;;;;;2.80;2.30;;;13.20;99.90;;;;;;5073417;28;20045;-72
2022/09/02 03:27:53;;;;;;;2.30;2.10;;;13.50;99.90;;;;;;5073307;28;20507;-70
2022/09/02 03:30:25;;;;;;;3.28;2.22;;;14.40;99.90;;;;;;5072758;28;20060;-70
2022/09/02 03:33:00;;;;;;;3.38;2.00;;;13.50;99.90;;;;;;5073229;28;20056;-71
2022/09/02 03:35:27;;;;;;;3.72;2.28;;;13.20;99.90;;;;;;5073393;28;20060;-71
2022/09/02 03:37:54;;;;;;;5.20;2.00;;;13.40;99.90;;;;;;5073195;28;20053;-71
2022/09/02 03:40:25;;;;;;;3.33;1.90;;;13.40;99.90;;;;;;5072123;28;20055;-72
2022/09/02 03:42:52;;;;;;;2.80;2.00;;;13.20;99.90;;;;;;5071841;28;20582;-73
2022/09/02 03:45:17;;;;;;;4.20;2.22;;;13.10;99.90;;;;;;5072894;28;20048;-71
2022/09/02 03:47:52;;;;;;;2.25;2.05;;;13.00;99.90;;;;;;5072057;28;20047;-71
2022/09/02 03:50:30;;;;;;;3.70;1.98;;;13.00;99.90;;;;;;5073359;28;20049;-70
2022/09/02 03:52:58;;;;;;;2.85;2.50;;;12.80;99.90;;;;;;5073041;28;20057;-73
2022/09/02 03:55:24;;;;;;;3.42;2.15;;;12.90;99.90;;;;;;5072598;28;20554;-70
2022/09/02 03:57:50;;;;;;;2.75;2.30;;;12.80;99.90;;;;;;5071755;28;20511;-70
2022/09/02 04:00:18;;;;;;;2.28;1.98;;;13.00;99.90;;;;;;5071048;28;20155;-70
2022/09/02 04:02:44;;;;;;;4.50;2.22;;;12.90;99.90;;;;;;5072413;28;20556;-69
2022/09/02 04:05:11;;;;;;;4.00;2.20;;;13.90;99.90;;;;;;5072778;28;20127;-69
2022/09/02 04:07:38;;;;;;;3.65;2.35;;;12.90;99.90;;;;;;5072539;28;20135;-70
2022/09/02 04:10:07;;;;;;;2.67;2.20;;;13.10;99.90;;;;;;5072651;28;20507;-71
2022/09/02 04:12:35;;;;;;;4.65;2.30;;;12.80;99.90;;;;;;5072472;28;20048;-71
2022/09/02 04:15:06;;;;;;;6.65;2.60;;;13.10;99.90;;;;;;5070937;28;20056;-73
2022/09/02 04:17:35;;;;;;;4.28;2.13;;;12.90;99.90;;;;;;5072520;28;20087;-71
2022/09/02 04:20:02;;;;;;;4.68;2.47;;;12.50;99.90;;;;;;5072444;28;20044;-71
2022/09/02 04:22:28;;;;;;;2.45;2.10;;;12.80;99.90;;;;;;5072361;28;20048;-72
2022/09/02 04:24:54;;;;;;;4.72;2.40;;;13.60;99.90;;;;;;5071087;28;20053;-71
2022/09/02 04:27:19;;;;;;;2.42;2.22;;;12.50;99.90;;;;;;5072294;28;20093;-71
2022/09/02 04:29:45;;;;;;;3.67;2.25;;;13.10;99.90;;;;;;5071436;28;20052;-72
2022/09/02 04:32:11;;;;;;;6.20;2.10;;;13.10;99.90;;;;;;5072200;28;20048;-70
2022/09/02 04:34:36;;;;;;;3.50;2.05;;;12.80;99.90;;;;;;5072435;28;20044;-71
2022/09/02 04:37:02;;;;;;;2.63;2.38;;;12.60;99.90;;;;;;5072205;28;20044;-71
2022/09/02 04:39:28;;;;;;;2.95;2.50;;;12.60;99.90;;;;;;5072122;28;20052;-69
2022/09/02 04:41:53;;;;;;;3.42;2.40;;;12.50;99.90;;;;;;5072074;28;20500;-71
2022/09/02 04:44:19;;;;;;;2.13;1.90;;;13.70;99.90;;;;;;5053886;28;20052;-70
2022/09/02 04:46:45;;;;;;;2.60;2.22;;;13.00;99.90;;;;;;5071757;28;20044;-71
2022/09/02 04:49:11;;;;;;;3.83;2.55;;;12.40;99.90;;;;;;5072052;28;20048;-71
2022/09/02 04:51:36;;;;;;;6.30;2.88;;;12.50;99.90;;;;;;5070557;28;20072;-71
2022/09/02 04:54:02;;;;;;;3.13;2.20;;;12.60;99.90;;;;;;5072028;28;20037;-71
2022/09/02 04:56:31;;;;;;;4.63;2.53;;;12.80;99.90;;;;;;5071965;28;20076;-73
2022/09/02 04:58:57;;;;;;;4.82;2.20;;;12.90;99.90;;;;;;5071630;28;20476;-71
2022/09/02 05:01:30;;;;;;;4.22;2.35;;;12.30;99.90;;;;;;5071902;28;20105;-71
2022/09/02 05:03:57;;;;;;;6.85;2.30;;;12.60;99.90;;;;;;5071954;28;20414;-69
2022/09/02 05:06:26;;;;;;;2.95;2.50;;;12.80;99.90;;;;;;5071853;28;20048;-68
2022/09/02 05:08:55;;;;;;;3.20;2.25;;;12.60;99.90;;;;;;5071867;28;20451;-70
2022/09/02 05:11:28;;;;;;;4.53;2.50;;;13.00;99.90;;;;;;5072976;28;20060;-72
2022/09/02 05:13:56;;;;;;;4.40;2.67;;;13.10;99.90;;;;;;5076023;28;20454;-71
2022/09/02 05:16:25;;;;;;;3.53;2.75;;;13.50;99.90;;;;;;5075932;28;20095;-69
2022/09/02 05:18:52;;;;;;;2.65;2.45;;;12.70;99.90;;;;;;5075889;28;20041;-69
2022/09/02 05:21:19;;;;;;;3.92;2.83;;;13.20;99.90;;;;;;5075861;28;20090;-71
2022/09/02 05:23:44;;;;;;;3.58;2.50;;;13.10;99.90;;;;;;5075782;28;20040;-70
2022/09/02 05:26:12;;;;;;;3.70;2.70;;;13.80;99.90;;;;;;5075513;28;20048;-70
2022/09/02 05:28:39;;;;;;;5.57;2.60;;;12.80;99.90;;;;;;5075661;28;20048;-71
2022/09/02 05:31:07;;;;;;;3.55;2.50;;;13.00;99.90;;;;;;5075043;28;20524;-70
2022/09/02 05:33:39;;;;;;;3.40;2.60;;;12.70;99.90;;;;;;5075611;28;20079;-73
2022/09/02 05:36:07;;;;;;;4.13;2.38;;;13.20;99.90;;;;;;5075601;28;20040;-72
2022/09/02 05:38:33;;;;;;;12.88;2.60;;;13.20;99.90;;;;;;5075559;28;20094;-73
2022/09/02 05:41:06;;;;;;;;;;;13.10;99.90;;;;;;5075682;28;20041;-72
2022/09/02 05:43:37;;;;;;;4.95;2.50;;;13.20;99.90;;;;;;5075855;28;19990;-74
2022/09/02 05:46:07;;;;;;;3.00;2.50;;;13.20;99.90;;;;;;5075640;28;20052;-72
2022/09/02 05:51:20;;;;;;;3.90;2.20;;;13.30;99.90;;;;;;5075220;28;20049;-70
2022/09/02 05:53:46;;;;;;;4.00;2.85;;;13.50;99.90;;;;;;5075171;28;20048;-68
2022/09/02 05:56:12;;;;;;;3.30;2.50;;;13.40;99.90;;;;;;5074906;28;20040;-70
2022/09/02 05:58:37;;;;;;;3.80;2.60;;;13.70;99.90;;;;;;5073774;28;20055;-73
2022/09/02 06:01:11;;;;;;;3.33;2.33;;;13.50;99.90;;;;;;5075100;28;20044;-72
2022/09/02 06:03:37;;;;;;;2.75;2.30;;;13.70;99.90;;;;;;5075047;28;20080;-73
2022/09/02 06:06:03;;;;;;;;;;;13.90;99.90;;;;;;5074347;28;20460;-72
2022/09/02 06:08:30;;;;;;;2.97;2.20;;;13.80;99.90;;;;;;5074895;28;20022;-70
2022/09/02 06:10:55;;;;;;;3.95;2.28;;;14.00;99.90;;;;;;5074583;28;20191;-72
2022/09/02 06:13:21;;;;;;;3.58;2.17;;;13.70;99.90;;;;;;5074859;28;20119;-71
2022/09/02 06:15:49;;;;;;;3.40;2.35;;;13.90;99.90;;;;;;5074826;28;20041;-70
2022/09/02 06:18:16;;;;;;;3.30;2.08;;;14.20;99.90;;;;;;5073467;28;20064;-72
2022/09/02 06:20:44;;;;;;;2.70;2.15;;;14.00;99.90;;;;;;5074682;28;20052;-69
2022/09/02 06:23:11;;;;;;;3.53;2.33;;;14.30;99.90;;;;;;5074650;28;20057;-72
2022/09/02 06:25:38;;;;;;;3.63;2.05;;;14.20;99.90;;;;;;5074289;28;20123;-73
2022/09/02 06:28:04;;;;;;;3.03;2.50;;;14.40;99.90;;;;;;5074623;28;20483;-73
2022/09/02 06:30:30;;;;;;;5.55;2.30;;;14.20;99.90;;;;;;5074505;28;20067;-73
2022/09/02 06:32:56;;;;;;;2.47;2.10;;;14.30;99.90;;;;;;5074433;28;20044;-73
2022/09/02 06:35:21;;;;;;;3.33;2.05;;;14.40;99.90;;;;;;5074529;28;20045;-73
2022/09/02 06:37:48;;;;;;;3.58;2.30;;;14.60;99.90;;;;;;5074437;28;20090;-72
2022/09/02 06:40:14;;;;;;;3.38;2.28;;;14.60;99.90;;;;;;5074137;28;20136;-73
2022/09/02 06:42:40;;;;;;;2.58;2.10;;;14.90;99.90;;;;;;5074285;28;20128;-70
2022/09/02 06:45:07;;;;;;;2.97;2.40;;;15.20;99.90;;;;;;5074329;28;20147;-72
2022/09/02 06:47:33;;;;;;;4.22;2.22;;;15.10;99.90;;;;;;5074228;28;20102;-71
2022/09/02 06:49:58;;;;;;;;;;;16.30;99.90;;;;;;5074624;28;20060;-73
2022/09/02 06:52:24;;;;;;;9.77;2.33;;;15.50;99.90;;;;;;5089861;28;19921;-73
2022/09/02 06:54:50;;;;;;;;;;;15.50;99.90;;;;;;5074323;28;20468;-72
2022/09/02 06:57:16;;;;;;;2.95;2.10;;;16.30;99.90;;;;;;5073777;28;20403;-70
2022/09/02 06:59:42;;;;;;;3.45;2.20;;;15.50;99.90;;;;;;5074026;28;20052;-71
2022/09/02 07:02:08;;;;;;;;;;;15.50;99.90;;;;;;5074417;28;20102;-73
2022/09/02 07:07:17;;;;;;;2.67;1.98;;;15.90;99.90;;;;;;5073666;28;20143;-76
2022/09/02 07:09:43;;;;;;;4.50;2.00;;;16.00;99.90;;;;;;5073840;28;20131;-72
2022/09/02 07:12:09;;;;;;;;;;;16.00;99.90;;;;;;5074179;28;20037;-68
2022/09/02 07:14:37;;;;;;;2.97;1.90;;;16.00;99.90;;;;;;5073668;28;19928;-71
2022/09/02 07:17:03;;;;;;;2.58;1.88;;;16.00;99.90;;;;;;5073726;28;20182;-75
2022/09/02 07:19:29;;;;;;;4.05;1.90;;;16.30;99.90;;;;;;5073573;28;20532;-72
2022/09/02 07:21:55;;;;;;;;;;;16.70;99.90;;;;;;5073739;28;20037;-71
2022/09/02 07:24:21;;;;;;;3.97;2.00;;;16.70;99.90;;;;;;5073544;28;19920;-71
2022/09/02 07:26:47;;;;;;;1.77;1.65;;;16.80;99.90;;;;;;5073506;28;20055;-69
2022/09/02 07:29:13;;;;;;;;;;;16.90;99.90;;;;;;5073716;28;20060;-68
2022/09/02 07:31:43;;;;;;;3.20;1.52;;;17.10;99.90;;;;;;5073389;28;19924;-67
2022/09/02 07:34:09;;;;;;;1.75;1.60;;;17.10;99.90;;;;;;5072173;28;20099;-71
2022/09/02 07:36:37;;;;;;;4.93;1.80;;;17.40;99.90;;;;;;5054963;28;20153;-69
2022/09/02 07:39:06;;;;;;;2.70;1.60;;;17.40;99.90;;;;;;5073311;28;20048;-70
2022/09/02 07:41:32;;;;;;;5.65;2.13;;;17.20;99.90;;;;;;5072832;28;20477;-68
2022/09/02 07:43:57;;;;;;;;;;;17.30;99.90;;;;;;5072273;28;20052;-72
2022/09/02 07:46:23;;;;;;;4.25;1.60;;;17.60;99.90;;;;;;5073101;28;19926;-72
2022/09/02 07:48:49;;;;;;;;;;;17.40;99.90;;;;;;5072232;28;20049;-68
2022/09/02 07:51:16;;;;;;;2.95;1.60;;;17.90;99.90;;;;;;5072644;28;20410;-72
2022/09/02 07:53:42;;;;;;;2.40;1.60;;;17.80;99.90;;;;;;5072895;28;20119;-72
2022/09/02 07:56:08;;;;;;;4.00;1.70;;;17.90;99.90;;;;;;5072864;28;20130;-71
2022/09/02 07:58:34;;;;;;;1.90;1.50;;;18.00;99.90;;;;;;5072760;28;20059;-72
2022/09/02 08:01:00;;;;;;;;;;;17.90;99.90;;;;;;5073125;28;20115;-70
2022/09/02 08:03:26;;;;;;;2.55;1.60;;;18.10;99.90;;;;;;5072706;28;19982;-71
2022/09/02 08:05:52;;;;;;;5.22;1.60;;;18.60;99.90;;;;;;5072398;28;20080;-69
2022/09/02 08:08:19;;;;;;;3.28;1.77;;;18.40;99.90;;;;;;5072606;28;20485;-71
2022/09/02 08:10:48;;;;;;;2.85;1.55;;;18.20;99.90;;;;;;5072597;28;20496;-69
2022/09/02 08:13:15;;;;;;;2.45;1.60;;;18.60;99.90;;;;;;5072435;28;20044;-73
2022/09/02 08:15:41;;;;;;;2.10;1.50;;;18.40;99.90;;;;;;5072207;28;20641;-70
2022/09/02 08:18:06;;;;;;;;;;;18.30;99.90;;;;;;5072892;28;20049;-74
2022/09/02 08:20:33;;;;;;;2.67;1.63;;;18.80;99.90;;;;;;5072172;28;19974;-69
2022/09/02 08:22:59;;;;;;;5.05;1.90;;;18.80;99.90;;;;;;5072076;28;20794;-70
2022/09/02 08:25:25;;;;;;;;;;;18.70;99.90;;;;;;5072772;28;20051;-70
2022/09/02 08:27:52;;;;;;;3.22;1.92;;;18.70;99.90;;;;;;5071042;28;19920;-68
2022/09/02 08:30:18;;;;;;;3.20;1.67;;;19.00;99.90;;;;;;5070618;28;20057;-70
2022/09/02 08:32:44;;;;;;;;;;;18.90;99.90;;;;;;5072563;28;20051;-67
2022/09/02 08:35:10;;;;;;;4.68;1.45;;;19.10;99.90;;;;;;5071937;28;19924;-69
2022/09/02 08:37:37;;;;;;;5.85;1.55;;;19.60;99.90;;;;;;5072266;28;20443;-68
2022/09/02 08:40:06;;;;;;;2.70;1.50;;;19.70;99.90;;;;;;5087717;28;20493;-70
2022/09/02 08:42:42;;;;;;;5.30;2.42;;;19.60;99.90;;;;;;5071834;28;20547;-71
2022/09/02 08:45:11;;;;;;;4.03;1.60;;;19.90;99.90;;;;;;5071663;28;20052;-68
2022/09/02 08:47:42;;;;;;;6.45;1.80;;;19.70;99.90;;;;;;5071907;28;20044;-68
2022/09/02 08:50:16;;;;;;;5.68;1.50;;;19.50;99.90;;;;;;5071851;28;20040;-69
2022/09/02 08:53:06;;;;;;;5.25;1.60;;;19.60;99.90;;;;;;5071951;28;20051;-70
2022/09/02 08:55:39;;;;;;;2.28;1.50;;;19.90;99.90;;;;;;5071986;28;20154;-70
2022/09/02 08:58:05;;;;;;;2.67;1.50;;;19.90;99.90;;;;;;5070740;28;20109;-71
2022/09/02 09:00:40;;;;;;;9.05;1.55;;;19.90;99.90;;;;;;5072175;28;20048;-68
2022/09/02 09:03:32;;;;;;;3.85;1.52;;;19.80;99.90;;;;;;5071886;28;20123;-68
2022/09/02 09:06:22;;;;;;;1.92;1.60;;;20.50;99.90;;;;;;5071805;28;20048;-68
2022/09/02 09:09:03;;;;;;;3.30;1.55;;;20.30;99.90;;;;;;5071893;28;20052;-70
2022/09/02 09:11:54;;;;;;;5.10;1.60;;;20.30;99.90;;;;;;5071733;28;20087;-71
2022/09/02 09:14:39;;;;;;;2.60;1.58;;;20.30;99.90;;;;;;5071829;28;20052;-67
2022/09/02 09:17:22;;;;;;;3.30;1.55;;;20.50;99.90;;;;;;5071804;28;20052;-72
2022/09/02 09:19:54;;;;;;;3.88;1.40;;;20.80;99.90;;;;;;5071534;28;20048;-65
2022/09/02 09:22:24;;;;;;;5.20;1.40;;;20.90;99.90;;;;;;5071892;28;20142;-70
2022/09/02 09:24:50;;;;;;;5.82;2.10;;;20.70;99.90;;;;;;5070679;28;20048;-70
2022/09/02 09:27:21;;;;;;;2.72;1.23;;;20.80;99.90;;;;;;5071863;28;20079;-69
2022/09/02 09:29:48;;;;;;;5.45;1.50;;;20.90;99.90;;;;;;5071589;28;20132;-67
2022/09/02 09:32:27;;;;;;;3.00;1.50;;;20.90;99.90;;;;;;5071663;28;20119;-69
2022/09/02 09:35:00;;;;;;;3.17;1.40;;;21.10;99.90;;;;;;5071678;28;20041;-69
2022/09/02 09:37:35;;;;;;;4.30;1.33;;;20.80;99.90;;;;;;5071666;28;20055;-70
2022/09/02 09:40:24;;;;;;;1.60;1.40;;;20.90;99.90;;;;;;5071551;28;20090;-68
2022/09/02 09:43:04;;;;;;;4.90;1.55;;;21.10;99.90;;;;;;5071642;28;20036;-68
2022/09/02 09:45:31;;;;;;;6.00;1.73;;;21.20;99.90;;;;;;5071452;28;20048;-66
2022/09/02 09:48:15;;;;;;;3.42;1.55;;;21.20;99.90;;;;;;5071183;28;20152;-67
2022/09/02 09:50:42;;;;;;;5.05;1.50;;;21.50;99.90;;;;;;5071397;28;20075;-71
2022/09/02 09:53:16;;;;;;;2.30;1.40;;;21.50;99.90;;;;;;5071379;28;20380;-68
2022/09/02 09:56:05;;;;;;;6.70;1.65;;;21.60;99.90;;;;;;5071370;28;20049;-67
2022/09/02 09:58:40;;;;;;;3.40;1.45;;;21.70;99.90;;;;;;5074605;28;20059;-70
2022/09/02 10:01:28;;;;;;;6.63;1.50;;;21.50;99.90;;;;;;5075115;28;20274;-67
2022/09/02 10:04:24;;;;;;;4.35;1.55;;;21.70;99.90;;;;;;5075055;28;20051;-70
2022/09/02 10:06:50;;;;;;;3.50;1.48;;;22.00;99.90;;;;;;5074991;28;20072;-67
2022/09/02 10:09:18;;;;;;;5.43;1.60;;;22.20;99.90;;;;;;5074843;28;20152;-69
2022/09/02 10:12:06;;;;;;;7.15;1.60;;;22.20;99.90;;;;;;5074848;28;20041;-70
2022/09/02 10:14:44;;;;;;;3.38;1.60;;;22.50;99.90;;;;;;5074901;28;20064;-67
2022/09/02 10:17:15;;;;;;;3.60;1.58;;;21.90;99.90;;;;;;5074641;28;20049;-70
2022/09/02 10:19:44;;;;;;;7.38;1.80;;;22.40;99.90;;;;;;5074771;28;20067;-68
2022/09/02 10:22:21;;;;;;;4.80;1.70;;;22.20;99.90;;;;;;5074765;28;20397;-68
2022/09/02 10:25:14;;;;;;;3.67;1.40;;;22.20;99.90;;;;;;5074688;28;20056;-70
2022/09/02 10:28:11;;;;;;;2.05;1.60;;;22.30;99.90;;;;;;5074674;28;20057;-68
2022/09/02 10:31:14;;;;;;;8.57;3.00;;;22.70;99.90;;;;;;5073949;28;20481;-69
2022/09/02 10:34:02;;;;;;;3.88;1.60;;;22.80;99.90;;;;;;5074522;28;20056;-66
2022/09/02 10:36:46;;;;;;;4.05;1.52;;;22.60;99.90;;;;;;5074834;28;20498;-67
2022/09/02 10:39:50;;;;;;;2.00;1.20;;;22.90;99.90;;;;;;5074466;28;20083;-73
2022/09/02 10:42:53;;;;;;;3.30;1.50;;;22.70;99.90;;;;;;5074426;28;20048;-71
2022/09/02 10:45:29;;;;;;;1.92;1.48;;;22.90;99.90;;;;;;5074057;28;20525;-67
2022/09/02 10:48:13;;;;;;;8.38;1.60;;;23.10;99.90;;;;;;5074278;28;20056;-70
2022/09/02 10:50:47;;;;;;;3.40;1.60;;;23.00;99.90;;;;;;5074215;28;20044;-68
2022/09/02 10:53:25;;;;;;;7.35;1.90;;;22.80;99.90;;;;;;5074180;28;20052;-67
2022/09/02 10:55:53;;;;;;;6.53;1.67;;;22.70;99.90;;;;;;5074138;28;20408;-70
2022/09/02 10:58:34;;;;;;;5.70;1.60;;;22.90;99.90;;;;;;5074077;28;20056;-69
2022/09/02 11:01:02;;;;;;;3.30;1.70;;;23.10;99.20;;;;;;5073783;28;20084;-67
2022/09/02 11:03:33;;;;;;;2.55;1.38;;;23.20;99.90;;;;;;5073913;28;20047;-68
2022/09/02 11:06:32;;;;;;;2.08;1.40;;;23.00;99.90;;;;;;5074008;28;20067;-70
2022/09/02 11:09:05;;;;;;;5.90;1.35;;;23.60;99.40;;;;;;5071408;28;20135;-67
2022/09/02 11:11:45;;;;;;;3.90;1.38;;;23.20;99.10;;;;;;5073797;28;20084;-64
2022/09/02 11:14:31;;;;;;;2.20;1.20;;;23.40;99.10;;;;;;5073660;28;20549;-68
2022/09/02 11:17:08;;;;;;;3.55;1.50;;;23.80;99.10;;;;;;5073838;28;20051;-71
2022/09/02 11:19:43;;;;;;;2.83;1.20;;;23.70;99.20;;;;;;5073786;28;20127;-66
2022/09/02 11:22:34;;;;;;;2.35;1.10;;;23.70;98.00;;;;;;5073954;28;20382;-70
2022/09/02 11:25:05;;;;;;;5.03;1.00;;;23.70;96.40;;;;;;5073714;28;20048;-67
2022/09/02 11:27:47;;;;;;;3.97;1.33;;;23.80;97.20;;;;;;5073640;28;20048;-67
2022/09/02 11:30:22;;;;;;;3.45;1.20;;;23.80;96.80;;;;;;5073282;28;20366;-69
2022/09/02 11:32:51;;;;;;;3.95;1.35;;;23.80;97.60;;;;;;5073424;28;20388;-65
2022/09/02 11:35:26;;;;;;;2.22;1.17;;;23.50;96.70;;;;;;5073296;28;20392;-67
2022/09/02 11:37:58;;;;;;;3.00;1.20;;;23.50;96.40;;;;;;5073404;28;20518;-70
2022/09/02 11:40:50;;;;;;;1.48;1.00;;;23.80;97.40;;;;;;5072949;28;20515;-66
2022/09/02 11:43:42;;;;;;;6.25;1.50;;;24.10;96.90;;;;;;5072278;28;20052;-68
2022/09/02 11:46:37;;;;;;;1.67;1.05;;;24.00;96.30;;;;;;5072484;28;20584;-68
2022/09/02 11:49:18;;;;;;;3.92;1.30;;;24.00;96.00;;;;;;5071840;28;20057;-69
2022/09/02 11:52:28;;;;;;;1.80;1.02;;;23.90;96.80;;;;;;5072969;28;20044;-71
2022/09/02 11:55:19;;;;;;;4.38;1.33;;;23.60;95.30;;;;;;5050336;28;20060;-66
2022/09/02 11:57:56;;;;;;;3.22;1.20;;;24.10;96.20;;;;;;5050053;28;20049;-67
2022/09/02 12:00:35;;;;;;;3.60;1.48;;;24.20;95.70;;;;;;5066315;28;20056;-67
2022/09/02 12:03:04;;;;;;;1.83;1.23;;;24.30;96.20;;;;;;5072865;28;20032;-66
2022/09/02 12:05:29;;;;;;;1.77;1.13;;;24.50;96.40;;;;;;5072714;28;20523;-68
2022/09/02 12:07:58;;;;;;;2.00;1.17;;;24.70;96.60;;;;;;5072376;28;20115;-67
2022/09/02 12:10:42;;;;;;;5.03;1.35;;;24.40;96.40;;;;;;5071389;28;20049;-66
2022/09/02 12:13:30;;;;;;;3.13;1.33;;;24.60;94.90;;;;;;5072181;28;20131;-70
2022/09/02 12:16:14;;;;;;;2.83;1.30;;;24.20;96.00;;;;;;5071531;28;20064;-68
2022/09/02 12:19:07;;;;;;;6.38;1.20;;;25.10;95.90;;;;;;5072495;28;20066;-70
2022/09/02 12:21:37;;;;;;;1.85;1.23;;;24.90;95.90;;;;;;5072266;28;20052;-69
2022/09/02 12:24:11;;;;;;;3.08;1.17;;;24.40;95.70;;;;;;5072526;28;20127;-68
2022/09/02 12:26:39;;;;;;;3.53;1.20;;;24.80;95.70;;;;;;5072115;28;20198;-68
2022/09/02 12:29:19;;;;;;;4.00;1.40;;;24.60;95.60;;;;;;5072135;28;20041;-69
2022/09/02 12:31:52;;;;;;;2.95;1.02;;;24.90;94.40;;;;;;5072211;28;20066;-68
2022/09/02 12:34:24;;;;;;;4.63;1.30;;;24.80;94.80;;;;;;5072345;28;20048;-69
2022/09/02 12:36:53;;;;;;;2.42;1.27;;;25.10;94.80;;;;;;5072347;28;20381;-67
2022/09/02 12:39:26;;;;;;;3.25;1.45;;;25.10;94.50;;;;;;5072194;28;20052;-68
2022/09/02 12:42:08;;;;;;;2.63;1.27;;;24.90;94.90;;;;;;5071913;28;20146;-70
2022/09/02 12:45:08;;;;;;;2.58;1.50;;;24.70;94.40;;;;;;5072258;28;20048;-70
2022/09/02 12:47:55;;;;;;;2.25;1.33;;;25.40;94.20;;;;;;5072088;28;20056;-69
2022/09/02 12:50:32;;;;;;;3.47;1.30;;;25.40;94.30;;;;;;5072108;28;20044;-69
2022/09/02 12:53:34;;;;;;;2.55;1.35;;;24.80;94.30;;;;;;5072013;28;20514;-66
2022/09/02 12:56:03;;;;;;;3.05;1.15;;;25.00;93.70;;;;;;5071749;28;20080;-69
2022/09/02 12:58:35;;;;;;;3.35;1.45;;;25.10;94.20;;;;;;5071962;28;20095;-66
2022/09/02 13:01:31;;;;;;;3.13;1.20;;;24.80;94.00;;;;;;5071989;28;20059;-64
2022/09/02 13:04:08;;;;;;;2.60;1.20;;;25.30;93.20;;;;;;5071768;28;20475;-69
2022/09/02 13:06:40;;;;;;;5.57;1.30;;;25.00;93.50;;;;;;5070959;28;20048;-67
2022/09/02 13:09:28;;;;;;;3.92;1.20;;;25.20;93.40;;;;;;5071882;28;20060;-65
2022/09/02 13:12:16;;;;;;;6.80;1.20;;;25.30;93.10;;;;;;5070439;28;20041;-67
2022/09/02 13:14:51;;;;;;;6.50;1.30;;;25.10;93.50;;;;;;5072173;28;20049;-66
2022/09/02 13:17:30;;;;;;;4.50;1.23;;;25.30;93.80;;;;;;5071998;28;20485;-65
2022/09/02 13:20:18;;;;;;;4.40;1.50;;;25.60;94.30;;;;;;5071894;28;20059;-66